Time;durP1;ratioP1;P1;durP2;ratioP2;P2;SDS_P1;SDS_P2;PMS_P1;PMS_P2;Temp;Humidity;BMP_temperature;BMP_pressure;BME280_temperature;BME280_humidity;BME280_pressure;Samples;Min_cycle;Max_cycle;Signal;HPM_P1;HPM_P2
2022/12/12 00:03:09;;;;;;;;;;;;;;;18.82;29.00;94767.28;10455919;28;2265;-51
2022/12/12 00:08:20;;;;;;;;;;;;;;;18.83;29.27;94768.88;10440759;28;2872;-53
2022/12/12 00:13:20;;;;;;;;;;;;;;;18.83;30.21;94770.69;10432735;28;2876;-50
2022/12/12 00:18:20;;;;;;;;;;;;;;;18.84;29.07;94778.28;10435034;28;2893;-53
2022/12/12 00:23:21;;;;;;;;;;;;;;;18.85;29.08;94776.44;10439716;28;2908;-50
2022/12/12 00:28:22;;;;;;;;;;;;;;;18.88;28.84;94779.28;10425570;28;2985;-49
2022/12/12 00:33:22;;;;;;;;;;;;;;;18.87;28.16;94777.72;10442555;28;2817;-49
2022/12/12 00:38:22;;;;;;;;;;;;;;;18.87;27.81;94777.72;10444785;28;2865;-48
2022/12/12 00:43:23;;;;;;;;;;;;;;;18.88;28.41;94781.91;10439299;28;2888;-49
2022/12/12 00:48:23;;;;;;;;;;;;;;;18.89;27.97;94778.22;10438814;28;2869;-51
2022/12/12 00:53:23;;;;;;;;;;;;;;;18.89;28.25;94788.72;10436989;28;2978;-48
2022/12/12 00:58:24;;;;;;;;;;;;;;;18.91;29.02;94783.97;10435646;28;3284;-49
2022/12/12 01:03:27;;;;;;;;;;;;;;;18.90;28.76;94787.63;10430849;28;2873;-51
2022/12/12 01:08:30;;;;;;;;;;;;;;;18.91;28.72;94791.84;10436982;28;2866;-54
2022/12/12 01:13:31;;;;;;;;;;;;;;;18.90;28.18;94789.50;10429721;28;2901;-53
2022/12/12 01:18:31;;;;;;;;;;;;;;;18.92;29.17;94797.88;10435108;28;2965;-51
2022/12/12 01:23:31;;;;;;;;;;;;;;;18.91;29.14;94796.31;10448170;28;2894;-53
2022/12/12 01:28:32;;;;;;;;;;;;;;;18.92;29.57;94808.38;10449302;28;2908;-53
2022/12/12 01:33:32;;;;;;;;;;;;;;;18.91;28.26;94799.72;10461081;28;2334;-52
2022/12/12 01:38:32;;;;;;;;;;;;;;;18.92;27.95;94803.13;10437063;28;2908;-49
2022/12/12 01:43:33;;;;;;;;;;;;;;;18.91;28.85;94802.34;10454202;28;2312;-50
2022/12/12 01:48:34;;;;;;;;;;;;;;;18.92;28.90;94797.88;10448875;28;2830;-52
2022/12/12 01:53:34;;;;;;;;;;;;;;;18.91;27.57;94798.94;10449107;28;2848;-53
2022/12/12 01:58:35;;;;;;;;;;;;;;;18.91;27.83;94804.97;10440116;28;2889;-50
2022/12/12 02:03:35;;;;;;;;;;;;;;;18.94;27.46;94808.88;10467020;28;2431;-53
2022/12/12 02:08:35;;;;;;;;;;;;;;;18.92;27.38;94808.38;10441942;28;2851;-52
2022/12/12 02:13:35;;;;;;;;;;;;;;;18.92;28.50;94805.75;10431117;28;2817;-52
2022/12/12 02:19:02;;;;;;;;;;;;;;;18.91;28.15;94807.59;10429711;28;2876;-51
2022/12/12 02:24:14;;;;;;;;;;;;;;;18.91;28.71;94815.47;10430326;28;2865;-50
2022/12/12 02:29:18;;;;;;;;;;;;;;;18.89;27.64;94814.97;10436368;28;2839;-50
2022/12/12 02:34:23;;;;;;;;;;;;;;;18.90;28.27;94811.28;10439726;28;2963;-51
2022/12/12 02:39:30;;;;;;;;;;;;;;;18.91;28.33;94817.31;10429093;28;3188;-51
2022/12/12 02:44:34;;;;;;;;;;;;;;;18.88;29.21;94813.41;10422656;28;2901;-50
2022/12/12 02:49:35;;;;;;;;;;;;;;;18.89;29.17;94817.59;10442159;28;2288;-52
2022/12/12 02:54:36;;;;;;;;;;;;;;;18.90;27.75;94824.41;10470438;28;2971;-51
2022/12/12 02:59:36;;;;;;;;;;;;;;;18.89;28.76;94820.22;10444491;28;2919;-51
2022/12/12 03:10:22;;;;;;;;;;;;;;;18.86;27.38;94820.78;10450747;28;2997;-48
2022/12/12 03:15:24;;;;;;;;;;;;;;;18.83;27.50;94831.88;10432143;28;3080;-52
2022/12/12 03:20:29;;;;;;;;;;;;;;;18.84;27.30;94833.41;10430307;28;2366;-53
2022/12/12 03:25:35;;;;;;;;;;;;;;;18.84;27.59;94830.78;10438871;28;2833;-51
2022/12/12 03:30:37;;;;;;;;;;;;;;;18.84;28.44;94827.38;10435107;28;2938;-49
2022/12/12 03:35:57;;;;;;;;;;;;;;;18.85;26.92;94831.59;10456056;28;2872;-52
2022/12/12 03:41:07;;;;;;;;;;;;;;;18.84;28.49;94838.66;10434981;28;2941;-51
2022/12/12 03:46:10;;;;;;;;;;;;;;;18.85;27.26;94840.25;10451887;28;2949;-51
2022/12/12 03:51:12;;;;;;;;;;;;;;;18.84;28.01;94832.63;10436692;28;2820;-53
2022/12/12 03:56:22;;;;;;;;;;;;;;;18.81;27.71;94834.00;10434617;28;2945;-52
2022/12/12 04:01:24;;;;;;;;;;;;;;;18.79;27.71;94830.88;10438278;28;2858;-49
2022/12/12 04:06:27;;;;;;;;;;;;;;;18.81;28.41;94827.97;10433122;28;2801;-54
2022/12/12 04:16:59;;;;;;;;;;;;;;;18.84;28.32;94827.38;10418557;28;2319;-52
2022/12/12 04:27:18;;;;;;;;;;;;;;;18.81;26.87;94839.25;10444296;28;3208;-52
2022/12/12 04:32:34;;;;;;;;;;;;;;;18.82;27.74;94842.63;10453785;28;2882;-54
2022/12/12 04:37:45;;;;;;;;;;;;;;;18.78;26.58;94855.56;10444023;28;2878;-53
2022/12/12 04:42:53;;;;;;;;;;;;;;;18.80;27.28;94853.44;10456210;28;3005;-50
2022/12/12 04:47:53;;;;;;;;;;;;;;;18.79;27.79;94856.34;10464176;28;2244;-51
2022/12/12 04:52:54;;;;;;;;;;;;;;;18.79;26.53;94851.88;10475282;28;2267;-52
2022/12/12 04:57:54;;;;;;;;;;;;;;;18.79;26.56;94851.88;10456447;28;2874;-52
2022/12/12 05:03:13;;;;;;;;;;;;;;;18.79;26.57;94857.13;10447868;28;2897;-54
2022/12/12 05:08:30;;;;;;;;;;;;;;;18.78;26.99;94858.19;10468187;28;2289;-51
2022/12/12 05:13:31;;;;;;;;;;;;;;;18.81;27.54;94859.47;10435699;28;2331;-52
2022/12/12 05:18:31;;;;;;;;;;;;;;;18.79;26.42;94872.88;10434627;28;2862;-52
2022/12/12 05:23:32;;;;;;;;;;;;;;;18.80;27.72;94874.44;10449144;28;3037;-51
2022/12/12 05:28:32;;;;;;;;;;;;;;;18.80;26.70;94874.44;10451196;28;2307;-52
2022/12/12 05:33:32;;;;;;;;;;;;;;;18.79;26.60;94878.13;10457484;28;3089;-53
2022/12/12 05:38:37;;;;;;;;;;;;;;;18.79;27.05;94883.38;10452223;28;3063;-50
2022/12/12 05:43:37;;;;;;;;;;;;;;;18.78;26.39;94894.94;10432102;28;2349;-53
2022/12/12 05:48:38;;;;;;;;;;;;;;;18.78;26.18;94897.56;10441355;28;2841;-54
2022/12/12 05:53:38;;;;;;;;;;;;;;;18.84;26.40;94901.69;10462337;28;2969;-52
2022/12/12 05:58:38;;;;;;;;;;;;;;;18.80;26.31;94899.91;10440391;28;2983;-49
2022/12/12 06:03:39;;;;;;;;;;;;;;;18.79;26.72;94909.66;10469869;28;3519;-52
2022/12/12 06:08:39;;;;;;;;;;;;;;;18.79;26.58;94904.41;10452475;28;2313;-52
2022/12/12 06:13:40;;;;;;;;;;;;;;;18.78;26.22;94912.53;10437365;28;2297;-52
2022/12/12 06:18:40;;;;;;;;;;;;;;;18.78;25.89;94909.91;10451283;28;2900;-52
2022/12/12 06:23:41;;;;;;;;;;;;;;;18.80;26.92;94910.41;10426852;28;2814;-52
2022/12/12 06:28:41;;;;;;;;;;;;;;;18.75;26.32;94913.91;10439074;28;2857;-51
2022/12/12 06:33:42;;;;;;;;;;;;;;;18.77;26.37;94914.41;10437822;28;2893;-51
2022/12/12 06:38:42;;;;;;;;;;;;;;;18.78;26.57;94918.56;10441223;28;3101;-51
2022/12/12 06:43:45;;;;;;;;;;;;;;;18.76;26.32;94912.81;10452045;28;2926;-50
2022/12/12 06:48:45;;;;;;;;;;;;;;;18.76;26.33;94912.81;10452961;28;2346;-51
2022/12/12 06:53:46;;;;;;;;;;;;;;;18.78;26.56;94923.81;10454007;28;3062;-51
2022/12/12 06:58:46;;;;;;;;;;;;;;;18.77;26.31;94922.28;10439821;28;2873;-50
2022/12/12 07:03:48;;;;;;;;;;;;;;;18.78;26.13;94933.53;10437091;28;2901;-48
2022/12/12 07:08:50;;;;;;;;;;;;;;;18.79;26.13;94943.00;10452208;28;3186;-53
2022/12/12 07:13:51;;;;;;;;;;;;;;;18.78;26.25;94941.41;10433082;28;2960;-51
2022/12/12 07:18:51;;;;;;;;;;;;;;;18.77;26.19;94947.75;10439136;28;2319;-51
2022/12/12 07:23:51;;;;;;;;;;;;;;;18.80;26.07;94945.31;10443709;28;2903;-53
2022/12/12 07:28:52;;;;;;;;;;;;;;;18.80;26.28;94940.06;10439892;28;2833;-48
2022/12/12 07:33:53;;;;;;;;;;;;;;;18.83;26.12;94951.88;10432982;28;2858;-53
2022/12/12 07:38:53;;;;;;;;;;;;;;;18.81;26.13;94949.53;10450197;28;2886;-52
2022/12/12 07:43:53;;;;;;;;;;;;;;;18.81;26.42;94964.50;10446694;28;2905;-52
2022/12/12 07:48:54;;;;;;;;;;;;;;;18.81;26.45;94964.50;10444542;28;2870;-50
2022/12/12 07:53:54;;;;;;;;;;;;;;;18.82;26.05;94971.28;10442835;28;2889;-53
2022/12/12 07:58:54;;;;;;;;;;;;;;;18.81;26.15;94980.25;10442507;28;2852;-51
2022/12/12 08:03:55;;;;;;;;;;;;;;;18.84;25.98;94980.47;10448814;28;2889;-52
2022/12/12 08:08:55;;;;;;;;;;;;;;;18.84;25.82;94983.09;10436703;28;2822;-49
2022/12/12 08:13:55;;;;;;;;;;;;;;;18.85;25.91;94986.50;10452191;28;2842;-50
2022/12/12 08:18:56;;;;;;;;;;;;;;;18.90;27.19;94984.59;10443906;28;2869;-52
2022/12/12 08:23:57;;;;;;;;;;;;;;;18.88;26.07;94983.31;10421962;28;2920;-54
2022/12/12 08:28:57;;;;;;;;;;;;;;;18.91;26.53;94990.63;10441787;28;2303;-51
2022/12/12 08:33:58;;;;;;;;;;;;;;;18.93;26.32;94993.75;10442550;28;2888;-54
2022/12/12 08:39:01;;;;;;;;;;;;;;;18.89;25.92;95001.44;10433941;28;2892;-52
2022/12/12 08:44:01;;;;;;;;;;;;;;;18.91;27.62;95003.75;10445768;28;2874;-50
2022/12/12 08:49:01;;;;;;;;;;;;;;;18.94;27.92;95005.84;10440266;28;2878;-54
2022/12/12 08:54:02;;;;;;;;;;;;;;;18.99;28.05;95011.81;10451961;28;2291;-53
2022/12/12 08:59:02;;;;;;;;;;;;;;;18.98;27.62;95004.97;10443855;28;2776;-52
2022/12/12 09:04:02;;;;;;;;;;;;;;;18.98;27.45;95015.47;10446973;28;2876;-50
2022/12/12 09:09:02;;;;;;;;;;;;;;;18.98;26.83;95023.34;10450741;28;2328;-53
2022/12/12 09:14:03;;;;;;;;;;;;;;;19.01;26.96;95020.19;10434588;28;2964;-53
2022/12/12 09:19:03;;;;;;;;;;;;;;;18.99;27.59;95024.94;10459472;28;2936;-52
2022/12/12 09:24:03;;;;;;;;;;;;;;;18.95;28.18;95026.56;10443156;28;2884;-50
2022/12/12 09:29:04;;;;;;;;;;;;;;;18.97;27.73;95034.94;10445902;28;2834;-52
2022/12/12 09:34:05;;;;;;;;;;;;;;;18.96;27.31;95032.59;10452234;28;2288;-53
2022/12/12 09:39:05;;;;;;;;;;;;;;;18.93;28.38;95036.56;10450503;28;2849;-54
2022/12/12 09:44:07;;;;;;;;;;;;;;;18.90;27.61;95033.72;10455581;28;2932;-51
2022/12/12 09:49:14;;;;;;;;;;;;;;;18.93;27.63;95030.53;10448951;28;2798;-53
2022/12/12 09:54:19;;;;;;;;;;;;;;;18.88;27.39;95039.22;10444855;28;2941;-53
2022/12/12 09:59:39;;;;;;;;;;;;;;;18.87;27.04;95037.69;10460579;28;2261;-51
2022/12/12 10:05:03;;;;;;;;;;;;;;;18.87;27.13;95039.53;10448546;28;2864;-50
2022/12/12 10:10:09;;;;;;;;;;;;;;;18.87;27.96;95032.44;10433442;28;2826;-53
2022/12/12 10:15:21;;;;;;;;;;;;;;;18.87;26.93;95027.19;10448223;28;2341;-50
2022/12/12 10:20:23;;;;;;;;;;;;;;;18.88;27.00;95023.47;10444853;28;3012;-53
2022/12/12 10:25:44;;;;;;;;;;;;;;;18.93;27.66;95014.75;10440267;28;2297;-51
2022/12/12 10:31:00;;;;;;;;;;;;;;;18.91;27.50;95022.94;10440430;28;2865;-54
2022/12/12 10:36:19;;;;;;;;;;;;;;;18.93;27.41;95026.06;10441156;28;2929;-54
2022/12/12 10:41:23;;;;;;;;;;;;;;;18.92;27.40;95013.97;10443096;28;2888;-53
2022/12/12 10:46:29;;;;;;;;;;;;;;;18.98;28.11;95012.09;10443033;28;2886;-48
2022/12/12 10:51:29;;;;;;;;;;;;;;;18.98;28.26;95004.97;10452428;28;2872;-55
2022/12/12 10:56:30;;;;;;;;;;;;;;;19.04;28.74;95006.47;10452980;28;2978;-51
2022/12/12 11:01:31;;;;;;;;;;;;;;;19.00;28.79;95007.34;10451965;28;2834;-52
2022/12/12 11:06:34;;;;;;;;;;;;;;;19.04;29.06;95011.72;10459003;28;2868;-51
2022/12/12 11:11:34;;;;;;;;;;;;;;;19.07;29.13;95007.75;10454072;28;2877;-55
2022/12/12 11:16:42;;;;;;;;;;;;;;;19.09;29.29;95008.25;10439155;28;2885;-52
2022/12/12 11:21:42;;;;;;;;;;;;;;;19.05;29.09;95005.44;10425914;28;2957;-50
2022/12/12 11:26:50;;;;;;;;;;;;;;;19.11;29.32;95004.31;10448964;28;2296;-52
2022/12/12 11:31:50;;;;;;;;;;;;;;;19.02;29.31;95008.59;10438436;28;2964;-53
2022/12/12 11:36:51;;;;;;;;;;;;;;;18.97;28.74;95011.31;10446859;28;2900;-52
2022/12/12 11:42:04;;;;;;;;;;;;;;;19.06;29.49;95006.97;10444608;28;3080;-50
2022/12/12 11:47:23;;;;;;;;;;;;;;;19.02;29.03;95003.34;10441381;28;2957;-53
2022/12/12 11:52:30;;;;;;;;;;;;;;;19.03;28.58;95002.31;10445191;28;3187;-54
2022/12/12 11:57:35;;;;;;;;;;;;;;;19.14;29.79;95001.13;10440393;28;2926;-52
2022/12/12 12:02:47;;;;;;;;;;;;;;;19.17;29.61;94990.03;10439185;28;2860;-50
2022/12/12 12:07:53;;;;;;;;;;;;;;;19.18;28.76;94991.63;10439172;28;3011;-49
2022/12/12 12:13:07;;;;;;;;;;;;;;;19.17;29.09;94986.63;10465739;28;2778;-51
2022/12/12 12:18:08;;;;;;;;;;;;;;;19.17;29.31;94974.28;10434239;28;2928;-50
2022/12/12 12:23:22;;;;;;;;;;;;;;;19.19;29.54;94977.41;10438620;28;2828;-53
2022/12/12 12:28:31;;;;;;;;;;;;;;;19.16;28.80;94982.44;10452341;28;3179;-51
2022/12/12 12:33:40;;;;;;;;;;;;;;;19.14;28.85;94982.75;10452383;28;2856;-51
2022/12/12 12:38:46;;;;;;;;;;;;;;;19.15;29.04;94986.91;10450114;28;2850;-52
2022/12/12 12:43:54;;;;;;;;;;;;;;;19.20;29.38;94986.06;10447939;28;2916;-52
2022/12/12 12:48:57;;;;;;;;;;;;;;;19.21;29.22;94979.72;10455170;28;3270;-52
2022/12/12 12:53:59;;;;;;;;;;;;;;;19.21;29.93;94980.53;10432347;28;2869;-50
2022/12/12 12:59:03;;;;;;;;;;;;;;;19.28;29.86;94980.19;10454185;28;2890;-52
2022/12/12 13:04:09;;;;;;;;;;;;;;;19.28;29.69;94982.81;10469443;28;2940;-50
2022/12/12 13:09:28;;;;;;;;;;;;;;;19.23;29.13;94977.59;10451915;28;2965;-53
2022/12/12 13:14:49;;;;;;;;;;;;;;;19.22;29.18;94982.09;10450546;28;2905;-47
2022/12/12 13:19:52;;;;;;;;;;;;;;;19.24;29.92;94979.97;10448057;28;2782;-50
2022/12/12 13:25:07;;;;;;;;;;;;;;;19.28;29.83;94977.56;10452847;28;2953;-49
2022/12/12 13:30:27;;;;;;;;;;;;;;;19.26;29.89;94983.09;10447023;28;2258;-51
2022/12/12 13:35:32;;;;;;;;;;;;;;;19.25;29.21;94994.66;10427337;28;2948;-50
2022/12/12 13:40:40;;;;;;;;;;;;;;;19.20;29.36;94997.38;10446998;28;2902;-51
2022/12/12 13:45:41;;;;;;;;;;;;;;;19.22;29.47;95002.34;10445004;28;2891;-51
2022/12/12 13:50:41;;;;;;;;;;;;;;;19.39;30.61;94992.16;10441764;28;2821;-50
2022/12/12 13:55:42;;;;;;;;;;;;;;;19.35;29.88;94996.41;10443260;28;2949;-53
2022/12/12 14:00:42;;;;;;;;;;;;;;;19.43;30.64;94996.53;10434689;28;2834;-51
2022/12/12 14:05:43;;;;;;;;;;;;;;;19.46;30.51;95000.47;10460105;28;2869;-52
2022/12/12 14:10:44;;;;;;;;;;;;;;;19.40;29.50;94997.13;10447320;28;2233;-60
2022/12/12 14:15:57;;;;;;;;;;;;;;;19.52;30.53;94994.06;10446766;28;3145;-60
2022/12/12 14:21:01;;;;;;;;;;;;;;;19.53;30.35;94998.25;10440992;28;3131;-58
2022/12/12 14:26:22;;;;;;;;;;;;;;;19.53;30.41;95002.72;10456953;28;2878;-54
2022/12/12 14:31:22;;;;;;;;;;;;;;;19.52;30.34;95001.16;10437284;28;2942;-60
2022/12/12 14:36:32;;;;;;;;;;;;;;;19.52;30.34;95011.66;10452676;28;3200;-53
2022/12/12 14:41:33;;;;;;;;;;;;;;;19.45;29.66;95006.78;10446164;28;2390;-53
2022/12/12 14:46:38;;;;;;;;;;;;;;;19.45;28.93;95010.19;10443856;28;2890;-60
2022/12/12 14:51:39;;;;;;;;;;;;;;;19.47;28.13;95021.19;10450010;28;2893;-50
2022/12/12 14:56:39;;;;;;;;;;;;;;;19.51;29.24;95020.63;10452073;28;2964;-52
2022/12/12 15:01:40;;;;;;;;;;;;;;;19.55;29.95;95011.91;10462148;28;2844;-51
2022/12/12 15:06:43;;;;;;;;;;;;;;;19.62;28.13;94999.16;10449096;28;2882;-51
2022/12/12 15:11:44;;;;;;;;;;;;;;;19.61;27.98;94995.00;10440567;28;2289;-49
2022/12/12 15:16:46;;;;;;;;;;;;;;;19.61;27.31;95000.25;10444233;28;2857;-50
2022/12/12 15:21:47;;;;;;;;;;;;;;;19.68;27.42;94994.63;10458697;28;2888;-51
2022/12/12 15:26:47;;;;;;;;;;;;;;;19.70;27.37;94997.75;10449954;28;2811;-49
2022/12/12 15:31:53;;;;;;;;;;;;;;;19.73;26.96;94999.81;10433604;28;2878;-52
2022/12/12 15:36:54;;;;;;;;;;;;;;;19.90;27.69;95000.88;10462339;28;3081;-52
2022/12/12 15:41:54;;;;;;;;;;;;;;;19.89;27.41;95007.19;10454111;28;3026;-47
2022/12/12 15:46:54;;;;;;;;;;;;;;;19.96;27.59;94999.72;10440028;28;2844;-49
2022/12/12 15:51:55;;;;;;;;;;;;;;;20.00;26.80;94995.44;10453086;28;2957;-53
2022/12/12 15:56:55;;;;;;;;;;;;;;;20.04;27.03;95003.53;10440181;28;2900;-52
2022/12/12 16:01:56;;;;;;;;;;;;;;;20.11;26.75;94998.69;10442435;28;2245;-51
2022/12/12 16:07:12;;;;;;;;;;;;;;;20.19;27.08;95000.66;10452108;28;3046;-51
2022/12/12 16:12:32;;;;;;;;;;;;;;;20.26;26.89;95001.09;10469597;28;2993;-53
2022/12/12 16:17:32;;;;;;;;;;;;;;;20.31;26.48;95003.66;10457971;28;3250;-50
2022/12/12 16:22:33;;;;;;;;;;;;;;;20.35;26.17;95007.25;10456513;28;2894;-50
2022/12/12 16:27:33;;;;;;;;;;;;;;;20.40;26.83;95012.44;10450248;28;2930;-53
2022/12/12 16:32:33;;;;;;;;;;;;;;;20.42;28.35;95014.78;10455210;28;2975;-52
2022/12/12 16:37:33;;;;;;;;;;;;;;;20.43;26.96;95017.13;10443922;28;2317;-51
2022/12/12 16:42:34;;;;;;;;;;;;;;;20.47;26.40;95023.38;10462092;28;2813;-51
2022/12/12 16:47:35;;;;;;;;;;;;;;;20.53;26.01;95016.16;10453357;28;2892;-49
2022/12/12 16:52:35;;;;;;;;;;;;;;;20.61;25.98;95020.78;10449093;28;2528;-50
2022/12/12 16:57:36;;;;;;;;;;;;;;;20.67;25.99;95012.47;10451756;28;2623;-50
2022/12/12 17:02:36;;;;;;;;;;;;;;;20.76;26.36;95013.38;10447862;28;3210;-52
2022/12/12 17:07:39;;;;;;;;;;;;;;;20.83;26.54;95012.97;10451246;28;3132;-50
2022/12/12 17:12:39;;;;;;;;;;;;;;;20.89;25.90;95024.97;10434770;28;2576;-51
2022/12/12 17:17:39;;;;;;;;;;;;;;;20.94;25.96;95038.03;10437060;28;3253;-50
2022/12/12 17:22:40;;;;;;;;;;;;;;;20.98;25.70;95021.38;10432712;28;3215;-48
2022/12/12 17:27:40;;;;;;;;;;;;;;;21.03;25.59;95016.03;10439845;28;3342;-52
2022/12/12 17:32:41;;;;;;;;;;;;;;;21.07;25.75;95021.50;10415655;28;2454;-51
2022/12/12 17:37:41;;;;;;;;;;;;;;;20.97;26.23;95022.44;10436801;28;3256;-52
2022/12/12 17:42:42;;;;;;;;;;;;;;;20.90;27.04;95035.22;10443146;28;3382;-50
2022/12/12 17:47:43;;;;;;;;;;;;;;;20.92;27.01;95025.16;10442038;28;3132;-49
2022/12/12 17:52:43;;;;;;;;;;;;;;;20.86;26.79;95026.34;10444691;28;3165;-49
2022/12/12 17:57:43;;;;;;;;;;;;;;;20.89;26.79;95025.78;10443314;28;3251;-48
2022/12/12 18:02:43;;;;;;;;;;;;;;;20.99;26.68;95017.66;10447869;28;3100;-49
2022/12/12 18:07:44;;;;;;;;;;;;;;;21.06;26.83;95020.72;10445728;28;3292;-50
2022/12/12 18:12:44;;;;;;;;;;;;;;;21.17;26.25;95015.22;10443965;28;3140;-49
2022/12/12 18:17:44;;;;;;;;;;;;;;;21.18;26.77;95017.59;10445677;28;3244;-51
2022/12/12 18:22:44;;;;;;;;;;;;;;;21.20;25.94;95009.38;10440640;28;3390;-47
2022/12/12 18:27:45;;;;;;;;;;;;;;;21.22;26.47;95015.13;10438343;28;3357;-48
2022/12/12 18:32:45;;;;;;;;;;;;;;;18.83;22.47;95023.56;10436816;28;3246;-51
2022/12/12 18:37:45;;;;;;;;;;;;;;;17.51;23.89;95030.13;10432464;28;2568;-48
2022/12/12 18:42:45;;;;;;;;;;;;;;;18.75;24.63;95029.41;10449625;28;2604;-52
2022/12/12 18:47:46;;;;;;;;;;;;;;;19.43;24.46;95030.72;10446959;28;3208;-52
2022/12/12 18:52:46;;;;;;;;;;;;;;;19.86;24.54;95033.28;10445001;28;3209;-50
2022/12/12 18:57:46;;;;;;;;;;;;;;;20.13;24.64;95034.16;10429137;28;2571;-50
2022/12/12 19:02:47;;;;;;;;;;;;;;;20.35;24.54;95028.31;10453883;28;3133;-50
2022/12/12 19:07:54;;;;;;;;;;;;;;;20.52;24.38;95033.81;10455594;28;3164;-51
2022/12/12 19:12:54;;;;;;;;;;;;;;;20.62;24.46;95033.63;10431081;28;3175;-50
2022/12/12 19:17:54;;;;;;;;;;;;;;;20.76;25.30;95034.44;10441663;28;3209;-51
2022/12/12 19:22:55;;;;;;;;;;;;;;;20.80;24.73;95032.00;10444194;28;3711;-49
2022/12/12 19:27:55;;;;;;;;;;;;;;;20.91;24.59;95034.16;10442328;28;2615;-51
2022/12/12 19:32:55;;;;;;;;;;;;;;;20.96;24.12;95033.25;10446691;28;2592;-47
2022/12/12 19:37:56;;;;;;;;;;;;;;;21.02;24.34;95029.47;10442640;28;3121;-53
2022/12/12 19:42:56;;;;;;;;;;;;;;;21.07;24.47;95021.50;10441511;28;3195;-49
2022/12/12 19:47:57;;;;;;;;;;;;;;;21.13;24.47;95035.34;10439643;28;2528;-52
2022/12/12 19:52:57;;;;;;;;;;;;;;;21.17;23.87;95026.56;10436415;28;2605;-50
2022/12/12 19:57:59;;;;;;;;;;;;;;;21.19;24.87;95013.88;10443933;28;3216;-50
2022/12/12 20:03:00;;;;;;;;;;;;;;;21.24;24.41;95010.34;10441378;28;3164;-51
2022/12/12 20:08:00;;;;;;;;;;;;;;;21.27;24.39;95020.31;10446708;28;3280;-51
2022/12/12 20:13:02;;;;;;;;;;;;;;;21.29;24.00;95021.56;10450213;28;2552;-50
2022/12/12 20:18:02;;;;;;;;;;;;;;;21.28;24.03;95014.75;10442356;28;2576;-49
2022/12/12 20:23:02;;;;;;;;;;;;;;;21.32;24.45;95007.03;10438393;28;3128;-53
2022/12/12 20:28:09;;;;;;;;;;;;;;;21.33;24.38;95008.59;10446935;28;3176;-50
2022/12/12 20:33:10;;;;;;;;;;;;;;;21.32;24.59;95010.44;10444448;28;3143;-53
2022/12/12 20:38:10;;;;;;;;;;;;;;;21.31;24.46;95006.22;10442310;28;3164;-51
2022/12/12 20:43:10;;;;;;;;;;;;;;;21.31;24.73;95000.19;10430278;28;3081;-52
2022/12/12 20:48:11;;;;;;;;;;;;;;;21.29;24.85;94997.84;10434915;28;3156;-51
2022/12/12 20:53:11;;;;;;;;;;;;;;;21.28;25.53;95001.56;10449293;28;2586;-50
2022/12/12 20:58:11;;;;;;;;;;;;;;;21.23;25.91;94991.13;10448292;28;3141;-50
2022/12/12 21:03:11;;;;;;;;;;;;;;;21.21;25.07;94992.47;10445980;28;3116;-50
2022/12/12 21:08:12;;;;;;;;;;;;;;;21.17;25.61;94999.41;10450562;28;2549;-53
2022/12/12 21:13:12;;;;;;;;;;;;;;;21.15;26.21;95001.56;10457876;28;3296;-53
2022/12/12 21:18:12;;;;;;;;;;;;;;;20.98;26.51;94997.66;10445544;28;3281;-48
2022/12/12 21:23:13;;;;;;;;;;;;;;;20.76;26.73;94996.78;10431204;28;3118;-51
2022/12/12 21:28:13;;;;;;;;;;;;;;;20.68;26.62;94992.19;10438444;28;3171;-52
2022/12/12 21:33:21;;;;;;;;;;;;;;;20.57;26.76;94991.59;10432952;28;2579;-49
2022/12/12 21:38:21;;;;;;;;;;;;;;;20.48;27.16;94988.09;10442089;28;3132;-52
2022/12/12 21:43:22;;;;;;;;;;;;;;;20.37;27.56;94996.44;10443368;28;3116;-51
2022/12/12 21:48:23;;;;;;;;;;;;;;;20.27;27.65;94989.50;10431650;28;3251;-50
2022/12/12 21:53:35;;;;;;;;;;;;;;;20.21;27.61;94980.13;10448298;28;3220;-49
2022/12/12 21:58:35;;;;;;;;;;;;;;;20.18;27.37;94983.31;10437269;28;3231;-52
2022/12/12 22:03:36;;;;;;;;;;;;;;;20.11;27.08;94975.03;10438135;28;3211;-47
2022/12/12 22:08:36;;;;;;;;;;;;;;;20.07;27.06;94987.19;10437787;28;3183;-49
2022/12/12 22:13:36;;;;;;;;;;;;;;;20.03;26.96;94992.22;10444821;28;3133;-52
2022/12/12 22:18:37;;;;;;;;;;;;;;;19.99;26.86;94985.97;10438861;28;3187;-52
2022/12/12 22:23:37;;;;;;;;;;;;;;;19.96;26.77;94991.03;10448080;28;3132;-49
2022/12/12 22:28:39;;;;;;;;;;;;;;;19.90;26.68;94992.97;10436894;28;3129;-54
2022/12/12 22:33:39;;;;;;;;;;;;;;;19.87;26.57;95000.63;10441215;28;2556;-49
2022/12/12 22:38:40;;;;;;;;;;;;;;;19.82;26.43;94993.63;10437315;28;3322;-48
2022/12/12 22:43:41;;;;;;;;;;;;;;;19.76;26.64;94981.63;10439156;28;2651;-50
2022/12/12 22:48:41;;;;;;;;;;;;;;;19.74;26.45;94980.34;10446232;28;3177;-51
2022/12/12 22:53:42;;;;;;;;;;;;;;;19.69;26.35;94980.41;10442123;28;3096;-53
2022/12/12 22:58:42;;;;;;;;;;;;;;;19.64;26.61;94973.38;10440595;28;3493;-54
2022/12/12 23:03:43;;;;;;;;;;;;;;;19.60;26.33;94966.38;10436837;28;2651;-51
2022/12/12 23:08:47;;;;;;;;;;;;;;;19.55;26.42;94958.53;10437598;28;3192;-49
2022/12/12 23:14:03;;;;;;;;;;;;;;;19.51;26.20;94960.19;10463629;28;3336;-51
2022/12/12 23:19:04;;;;;;;;;;;;;;;19.49;26.21;94955.97;10442575;28;3160;-51
2022/12/12 23:24:05;;;;;;;;;;;;;;;19.44;26.27;94952.66;10438408;28;2540;-48
2022/12/12 23:29:07;;;;;;;;;;;;;;;19.42;26.24;94954.78;10438755;28;3118;-52
2022/12/12 23:34:11;;;;;;;;;;;;;;;19.37;26.14;94957.50;10438428;28;3225;-51
2022/12/12 23:39:11;;;;;;;;;;;;;;;19.32;26.27;94949.63;10433937;28;3188;-48
2022/12/12 23:44:12;;;;;;;;;;;;;;;19.28;26.20;94943.41;10439879;28;3323;-50
2022/12/12 23:49:14;;;;;;;;;;;;;;;19.24;26.12;94937.16;10442841;28;3162;-52
2022/12/12 23:54:16;;;;;;;;;;;;;;;19.19;26.04;94929.31;10444717;28;3188;-53
2022/12/12 23:59:17;;;;;;;;;;;;;;;19.16;26.16;94925.44;10447150;28;3069;-51
